createdAt,value
2023-07-29T11:04:33.359Z,3.25
2023-07-29T11:07:53.207Z,3.21
2023-07-29T11:11:08.152Z,3.33
2023-07-29T11:14:16.292Z,3.45
2023-07-29T11:17:23.755Z,3.31
2023-07-29T11:20:35.244Z,3.30
2023-07-29T11:23:42.239Z,3.21
2023-07-29T11:26:51.712Z,3.35
2023-07-29T11:30:05.403Z,3.30
2023-07-29T11:33:12.622Z,3.39
2023-07-29T11:36:27.359Z,3.33
2023-07-29T11:39:34.283Z,3.22
2023-07-29T11:42:41.875Z,3.21
2023-07-29T11:45:52.070Z,3.31
2023-07-29T11:48:59.461Z,3.22
2023-07-29T11:52:12.666Z,3.08
2023-07-29T11:55:21.368Z,3.17
2023-07-29T11:58:30.611Z,3.14
2023-07-29T12:01:40.291Z,3.26
2023-07-29T12:04:52.537Z,3.17
2023-07-29T12:08:03.081Z,3.22
2023-07-29T12:11:13.277Z,3.12
2023-07-29T12:14:21.542Z,3.21
2023-07-29T12:17:29.824Z,3.52
2023-07-29T12:20:37.915Z,3.15
2023-07-29T12:24:21.759Z,2.56
2023-07-29T12:27:35.602Z,2.67
2023-07-29T12:30:46.894Z,2.84
2023-07-29T12:34:01.059Z,2.95
2023-07-29T12:37:12.317Z,2.72
2023-07-29T12:40:33.469Z,2.77
2023-07-29T12:43:42.189Z,2.67
2023-07-29T12:46:54.891Z,2.54
2023-07-29T12:50:03.614Z,2.55
2023-07-29T12:53:14.542Z,2.52
2023-07-29T12:56:25.999Z,2.72
2023-07-29T12:59:35.481Z,2.81
2023-07-29T13:02:44.653Z,2.76
2023-07-29T13:05:54.053Z,2.56
2023-07-29T13:09:03.049Z,2.19
2023-07-29T13:12:15.000Z,2.23
2023-07-29T13:15:24.784Z,2.13
2023-07-29T13:18:34.919Z,2.06
2023-07-29T13:21:43.630Z,1.94
2023-07-29T13:24:53.286Z,2.11
2023-07-29T13:28:04.388Z,2.25
2023-07-29T13:31:14.402Z,2.41
2023-07-29T13:34:23.083Z,2.33
2023-07-29T13:37:32.495Z,1.92
2023-07-29T13:40:41.052Z,1.67
2023-07-29T13:43:53.254Z,1.93
2023-07-29T13:47:01.689Z,1.96
2023-07-29T13:50:13.374Z,2.20
2023-07-29T13:53:22.932Z,2.16
2023-07-29T13:56:32.151Z,2.16
2023-07-29T13:59:43.335Z,2.11
2023-07-29T14:02:52.619Z,2.00
2023-07-29T14:06:01.237Z,2.13
2023-07-29T14:09:10.893Z,2.05
2023-07-29T14:12:22.250Z,1.88
2023-07-29T14:15:34.315Z,2.13
2023-07-29T14:18:43.077Z,2.18
2023-07-29T14:21:53.450Z,2.22
2023-07-29T14:25:01.934Z,1.98
2023-07-29T14:28:11.490Z,2.04
2023-07-29T14:31:23.851Z,2.06
2023-07-29T14:34:33.515Z,2.21
2023-07-29T14:37:41.899Z,2.42
2023-07-29T14:40:54.940Z,2.66
2023-07-29T14:44:03.620Z,3.16
2023-07-29T14:47:15.478Z,2.61
2023-07-29T14:50:23.923Z,2.60
2023-07-29T14:53:33.104Z,2.54
2023-07-29T14:56:41.678Z,2.48
2023-07-29T14:59:50.843Z,2.62
2023-07-29T15:03:07.997Z,2.55
2023-07-29T15:06:17.487Z,2.62
2023-07-29T15:09:27.995Z,2.94
2023-07-29T15:12:37.281Z,3.11
2023-07-29T15:15:46.960Z,2.89
2023-07-29T15:18:59.090Z,2.60
2023-07-29T15:22:07.902Z,2.86
2023-07-29T15:25:17.195Z,2.68
2023-07-29T15:28:28.734Z,2.59
2023-07-29T15:31:39.592Z,2.20
2023-07-29T15:34:50.905Z,1.82
2023-07-29T15:38:00.180Z,1.73
2023-07-29T15:41:10.285Z,2.09
2023-07-29T15:44:19.524Z,2.00
2023-07-29T15:47:28.413Z,1.97
2023-07-29T15:50:40.752Z,2.40
2023-07-29T15:53:49.397Z,2.86
2023-07-29T15:56:58.700Z,2.42
2023-07-29T16:00:08.951Z,2.30
2023-07-29T16:03:21.167Z,2.38
2023-07-29T16:06:35.398Z,2.69
2023-07-29T16:09:44.895Z,2.40
2023-07-29T16:12:53.315Z,2.57
2023-07-29T16:16:02.774Z,2.45
2023-07-29T16:19:11.387Z,2.54
2023-07-29T16:22:23.186Z,2.83
2023-07-29T16:25:31.656Z,2.62
2023-07-29T16:28:42.622Z,2.47
2023-07-29T16:31:53.299Z,2.71
2023-07-29T16:35:03.183Z,2.72
2023-07-29T16:38:14.434Z,2.88
2023-07-29T16:42:01.837Z,2.99
2023-07-29T16:44:56.234Z,2.84
2023-07-29T16:48:05.830Z,2.84
2023-07-29T16:51:14.238Z,2.95
2023-07-29T16:54:26.086Z,2.29
2023-07-29T16:57:34.913Z,2.44
2023-07-29T17:00:44.337Z,2.65
2023-07-29T17:03:53.428Z,3.03
2023-07-29T17:07:08.994Z,2.68
2023-07-29T17:13:27.398Z,2.10
2023-07-29T17:16:37.098Z,1.86
2023-07-29T17:19:46.098Z,1.55
2023-07-29T17:22:56.236Z,1.53
2023-07-29T17:26:05.902Z,1.63
2023-07-29T17:29:17.860Z,2.07
2023-07-29T17:32:26.450Z,1.98
2023-07-29T17:35:36.083Z,1.67
2023-07-29T17:38:45.139Z,1.62
2023-07-29T17:41:54.420Z,1.56
2023-07-29T17:45:05.797Z,1.49
2023-07-29T17:48:15.177Z,1.75
2023-07-29T17:51:25.960Z,1.49
2023-07-29T17:54:35.606Z,1.40
2023-07-29T17:57:44.008Z,1.42
2023-07-29T18:00:57.817Z,1.65
2023-07-29T18:04:06.231Z,1.61
2023-07-29T18:07:15.494Z,1.55
2023-07-29T18:10:25.436Z,1.77
2023-07-29T18:13:35.580Z,2.33
2023-07-29T18:18:28.263Z,3.65
2023-07-29T18:22:55.710Z,3.15
2023-07-29T18:29:16.459Z,2.61
2023-07-29T18:32:26.060Z,2.21
2023-07-29T18:35:34.691Z,2.12
2023-07-29T18:38:43.834Z,2.58
2023-07-29T18:44:17.927Z,3.86
2023-07-29T18:47:27.384Z,2.68
2023-07-29T18:52:23.849Z,2.41
2023-07-29T18:55:33.233Z,2.66
2023-07-29T18:58:41.526Z,2.52
